Allisona, Tennessee
Current Conditions -  °F | °C
As of 11:53 AM on Thursday 23 Oct 2014 (Local Time) from KBNA Reporting Station
Scattered Clouds Scattered Clouds  
Wind Chill: 58°   Ceiling: Unl
Heat Index: 58°   Visibility: 10mi
Dew Point: 42°   Wind: 7mph
Humidity: 56%   Direction: 90°E
Pressure: 30.21"   Gusts: NA
Location:  35.7808°N, 86.7221°W
Report Text: KBNA 231653Z 09006KT 10SM FEW200 SCT250 14/06 A3021 RMK AO2 SLP229 T01440056
Loading
Personal Weather Stations






























Interactive Weather Map New forecast layout! Learn more

10-Day Weather Forecast

Advertisements
Track Severe Weather on mobile